Time;durP1;ratioP1;P1;durP2;ratioP2;P2;SDS_P1;SDS_P2;PMS_P1;PMS_P2;Temp;Humidity;BMP_temperature;BMP_pressure;BME280_temperature;BME280_humidity;BME280_pressure;Samples;Min_cycle;Max_cycle;Signal;HPM_P1;HPM_P2
2021/08/30 00:00:49;;;;;;;12.73;6.07;;;12.90;99.90;;;;;;4408148;28;657962;-69
2021/08/30 00:03:37;;;;;;;10.20;5.90;;;12.90;99.90;;;;;;4421703;28;657910;-69
2021/08/30 00:06:25;;;;;;;9.37;6.07;;;12.90;99.90;;;;;;4434661;28;658901;-68
2021/08/30 00:09:13;;;;;;;7.47;5.47;;;12.90;99.90;;;;;;4407936;28;656455;-68
2021/08/30 00:12:00;;;;;;;12.63;6.07;;;12.90;99.90;;;;;;4432092;28;656877;-68
2021/08/30 00:14:49;;;;;;;8.53;5.23;;;12.90;99.90;;;;;;4411750;28;657831;-69
2021/08/30 00:17:37;;;;;;;11.50;5.77;;;12.90;99.90;;;;;;4422853;28;657411;-68
2021/08/30 00:20:25;;;;;;;7.37;5.13;;;12.90;99.90;;;;;;4433589;28;658380;-68
2021/08/30 00:23:13;;;;;;;10.30;5.93;;;12.90;99.90;;;;;;4413265;28;656989;-69
2021/08/30 00:26:04;;;;;;;10.93;5.60;;;12.90;99.90;;;;;;4434317;28;657947;-69
2021/08/30 00:28:51;;;;;;;9.33;5.47;;;12.80;99.90;;;;;;4408256;28;657956;-68
2021/08/30 00:31:41;;;;;;;9.60;5.90;;;12.80;99.90;;;;;;4409854;28;657504;-68
2021/08/30 00:34:28;;;;;;;7.47;5.57;;;12.80;99.90;;;;;;4405059;28;656725;-68
2021/08/30 00:37:16;;;;;;;9.80;6.30;;;12.80;99.90;;;;;;4432580;28;656534;-68
2021/08/30 00:40:05;;;;;;;8.97;6.27;;;12.80;99.90;;;;;;4395339;28;657145;-68
2021/08/30 00:42:52;;;;;;;13.67;6.67;;;12.80;99.90;;;;;;4412671;28;656735;-68
2021/08/30 00:45:40;;;;;;;10.43;6.73;;;12.90;99.90;;;;;;4428862;28;658866;-69
2021/08/30 00:48:29;;;;;;;9.80;6.57;;;12.80;99.90;;;;;;4407083;28;657520;-68
2021/08/30 00:51:18;;;;;;;9.20;6.37;;;12.90;99.90;;;;;;4422906;28;656340;-69
2021/08/30 00:54:05;;;;;;;10.60;6.47;;;12.90;99.90;;;;;;4413324;28;656716;-69
2021/08/30 00:56:53;;;;;;;11.03;6.03;;;12.90;99.90;;;;;;4410813;28;657569;-69
2021/08/30 00:59:42;;;;;;;9.97;6.10;;;12.80;99.90;;;;;;4430857;28;658162;-68
2021/08/30 01:02:29;;;;;;;11.90;6.07;;;12.80;99.90;;;;;;4409218;28;657693;-68
2021/08/30 01:05:19;;;;;;;10.20;6.73;;;12.80;99.90;;;;;;4421708;28;658288;-69
2021/08/30 01:08:09;;;;;;;10.60;6.63;;;12.70;99.90;;;;;;4430371;28;657592;-68
2021/08/30 01:10:58;;;;;;;11.43;6.80;;;12.70;99.90;;;;;;4407594;28;657531;-68
2021/08/30 01:13:47;;;;;;;11.07;6.57;;;12.70;99.90;;;;;;4407837;28;658804;-68
2021/08/30 01:16:34;;;;;;;10.23;6.73;;;12.80;99.90;;;;;;4405222;28;658373;-69
2021/08/30 01:19:36;;;;;;;12.20;6.83;;;12.80;99.90;;;;;;4425116;28;657548;-69
2021/08/30 01:22:25;;;;;;;9.98;6.88;;;12.80;99.90;;;;;;4376126;28;658289;-69
2021/08/30 01:25:19;;;;;;;11.73;7.13;;;12.80;99.90;;;;;;4406979;28;656424;-68
2021/08/30 01:28:07;;;;;;;11.90;7.53;;;12.80;99.90;;;;;;4389589;28;657584;-69
2021/08/30 01:30:55;;;;;;;14.67;7.23;;;12.70;99.90;;;;;;4408995;28;658279;-69
2021/08/30 01:33:44;;;;;;;11.37;6.90;;;12.70;99.90;;;;;;4391090;28;657399;-69
2021/08/30 01:36:31;;;;;;;13.37;6.80;;;12.70;99.90;;;;;;4412512;28;658031;-69
2021/08/30 01:39:19;;;;;;;11.03;7.17;;;12.70;99.90;;;;;;4389326;28;658561;-69
2021/08/30 01:42:06;;;;;;;10.10;6.77;;;12.70;99.90;;;;;;4406073;28;657721;-69
2021/08/30 01:44:54;;;;;;;9.47;6.90;;;12.70;99.90;;;;;;4388989;28;658690;-69
2021/08/30 01:47:42;;;;;;;16.17;7.43;;;12.70;99.90;;;;;;4413718;28;656282;-69
2021/08/30 01:50:31;;;;;;;11.93;7.60;;;12.70;99.90;;;;;;4389703;28;657793;-69
2021/08/30 01:53:19;;;;;;;12.33;8.57;;;12.60;99.90;;;;;;4378370;28;659170;-69
2021/08/30 01:56:07;;;;;;;11.63;8.07;;;12.60;99.90;;;;;;4412538;28;657512;-69
2021/08/30 02:02:00;;;;;;;11.73;8.60;;;12.60;99.90;;;;;;4366214;28;658580;-69
2021/08/30 02:04:47;;;;;;;13.30;8.40;;;12.60;99.90;;;;;;4390217;28;657613;-69
2021/08/30 02:07:36;;;;;;;16.00;9.07;;;12.60;99.90;;;;;;4416496;28;658186;-69
2021/08/30 02:10:24;;;;;;;16.40;8.60;;;12.70;99.90;;;;;;4393092;28;658901;-69
2021/08/30 02:13:12;;;;;;;17.63;8.67;;;12.60;99.90;;;;;;4412749;28;657448;-69
2021/08/30 02:16:00;;;;;;;16.43;9.33;;;12.60;99.90;;;;;;4393615;28;658218;-69
2021/08/30 02:18:51;;;;;;;19.20;9.20;;;12.70;99.90;;;;;;4386795;28;657321;-69
2021/08/30 02:21:40;;;;;;;19.47;9.00;;;12.70;99.90;;;;;;4386495;28;657690;-69
2021/08/30 02:24:33;;;;;;;17.50;9.27;;;12.70;99.90;;;;;;4391847;28;657928;-69
2021/08/30 02:27:24;;;;;;;24.45;9.27;;;12.70;99.90;;;;;;4397861;28;658476;-69
2021/08/30 02:30:15;;;;;;;38.40;9.57;;;12.60;99.90;;;;;;4401464;28;657643;-69
2021/08/30 02:33:03;;;;;;;14.83;7.97;;;12.60;99.90;;;;;;4401016;28;657574;-69
2021/08/30 02:35:53;;;;;;;23.37;8.50;;;12.60;99.90;;;;;;4433151;28;657538;-69
2021/08/30 02:38:40;;;;;;;16.23;9.03;;;12.60;99.90;;;;;;4399741;28;658377;-69
2021/08/30 02:41:29;;;;;;;17.73;10.67;;;12.50;99.90;;;;;;4402617;28;657466;-69
2021/08/30 02:44:17;;;;;;;20.83;11.30;;;12.50;99.90;;;;;;4424906;28;659060;-69
2021/08/30 02:47:06;;;;;;;22.27;11.77;;;12.50;99.90;;;;;;4405181;28;659722;-69
2021/08/30 02:49:53;;;;;;;19.83;12.00;;;12.50;99.90;;;;;;4405076;28;659341;-69
2021/08/30 02:52:41;;;;;;;22.23;11.50;;;12.50;99.90;;;;;;4428213;28;659034;-69
2021/08/30 02:55:28;;;;;;;27.80;11.83;;;12.50;99.90;;;;;;4409226;28;659046;-69
2021/08/30 02:58:17;;;;;;;21.57;12.47;;;12.50;99.90;;;;;;4430845;28;659374;-69
2021/08/30 03:01:05;;;;;;;19.90;12.30;;;12.50;99.90;;;;;;4407853;28;659621;-69
2021/08/30 03:03:52;;;;;;;25.73;12.97;;;12.40;99.90;;;;;;4411972;28;658562;-69
2021/08/30 03:06:40;;;;;;;22.30;13.50;;;12.40;99.90;;;;;;4430859;28;659061;-69
2021/08/30 03:09:27;;;;;;;24.42;13.25;;;12.40;99.90;;;;;;4412210;28;658466;-69
2021/08/30 03:12:15;;;;;;;21.83;13.37;;;12.40;99.90;;;;;;4435513;28;658613;-69
2021/08/30 03:15:06;;;;;;;21.80;13.27;;;12.40;99.90;;;;;;4410473;28;658774;-69
2021/08/30 03:17:54;;;;;;;22.00;13.00;;;12.40;99.90;;;;;;4407625;28;659880;-69
2021/08/30 03:20:42;;;;;;;22.03;12.57;;;12.40;99.90;;;;;;4422276;28;658621;-69
2021/08/30 03:23:29;;;;;;;20.77;12.47;;;12.40;99.90;;;;;;4407291;28;659162;-69
2021/08/30 03:26:17;;;;;;;20.33;13.53;;;12.40;99.90;;;;;;4427039;28;658670;-69
2021/08/30 03:29:05;;;;;;;22.10;13.30;;;12.40;99.90;;;;;;4430773;28;658870;-69
2021/08/30 03:31:54;;;;;;;22.60;12.97;;;12.40;99.90;;;;;;4411792;28;659196;-69
2021/08/30 03:34:42;;;;;;;19.37;12.43;;;12.40;99.90;;;;;;4430881;28;658228;-69
2021/08/30 03:37:29;;;;;;;24.50;13.30;;;12.50;99.90;;;;;;4412165;28;659510;-69
2021/08/30 03:40:17;;;;;;;27.03;14.30;;;12.40;99.90;;;;;;4435139;28;658889;-69
2021/08/30 03:43:04;;;;;;;22.57;13.27;;;12.40;99.90;;;;;;4406451;28;659087;-69
2021/08/30 03:45:53;;;;;;;22.70;12.40;;;12.40;99.90;;;;;;4418875;28;658457;-69
2021/08/30 03:48:42;;;;;;;18.50;12.47;;;12.50;99.90;;;;;;4434613;28;659763;-69
2021/08/30 03:51:29;;;;;;;22.07;13.47;;;12.50;99.90;;;;;;4411923;28;659173;-69
2021/08/30 03:54:17;;;;;;;19.97;13.10;;;12.50;99.90;;;;;;4419186;28;658497;-69
2021/08/30 03:57:05;;;;;;;22.77;14.40;;;12.50;99.90;;;;;;4429548;28;658299;-69
2021/08/30 03:59:55;;;;;;;22.73;13.93;;;12.50;99.90;;;;;;4410967;28;658660;-69
2021/08/30 04:02:42;;;;;;;22.37;14.60;;;12.50;99.90;;;;;;4414902;28;658663;-69
2021/08/30 04:05:31;;;;;;;21.50;14.90;;;12.50;99.90;;;;;;4427253;28;659220;-69
2021/08/30 04:08:19;;;;;;;21.00;13.33;;;12.50;99.90;;;;;;4406709;28;659670;-69
2021/08/30 04:11:09;;;;;;;22.67;13.77;;;12.40;99.90;;;;;;4423389;28;658905;-69
2021/08/30 04:13:56;;;;;;;24.13;13.80;;;12.50;99.90;;;;;;4407354;28;658433;-70
2021/08/30 04:16:46;;;;;;;22.57;13.90;;;12.40;99.90;;;;;;4405617;28;658577;-69
2021/08/30 04:19:35;;;;;;;22.23;13.07;;;12.40;99.90;;;;;;4409897;28;658979;-70
2021/08/30 04:22:24;;;;;;;15.53;11.07;;;12.50;99.90;;;;;;4404437;28;658721;-69
2021/08/30 04:25:12;;;;;;;16.97;10.97;;;12.40;99.90;;;;;;4429828;28;658387;-69
2021/08/30 04:28:00;;;;;;;19.10;11.27;;;12.40;99.90;;;;;;4406490;28;659255;-69
2021/08/30 04:30:48;;;;;;;18.43;11.30;;;12.40;99.90;;;;;;4410524;28;658927;-69
2021/08/30 04:33:35;;;;;;;16.43;11.70;;;12.40;99.90;;;;;;4416997;28;659229;-69
2021/08/30 04:36:23;;;;;;;16.43;12.10;;;12.40;99.90;;;;;;4394095;28;658343;-69
2021/08/30 04:39:12;;;;;;;15.47;11.03;;;12.30;99.90;;;;;;4420168;28;659197;-69
2021/08/30 04:42:01;;;;;;;16.40;11.57;;;12.30;99.90;;;;;;4410425;28;659545;-69
2021/08/30 04:44:50;;;;;;;16.80;11.77;;;12.30;99.90;;;;;;4401845;28;659406;-69
2021/08/30 04:47:37;;;;;;;15.75;11.40;;;12.30;99.90;;;;;;4410645;28;658417;-69
2021/08/30 04:50:25;;;;;;;14.63;11.00;;;12.40;99.90;;;;;;4425589;28;659114;-69
2021/08/30 04:53:13;;;;;;;15.77;10.50;;;12.40;99.90;;;;;;4410315;28;658793;-69
2021/08/30 04:56:02;;;;;;;14.63;10.90;;;12.40;99.90;;;;;;4422033;28;659389;-69
2021/08/30 04:58:49;;;;;;;13.63;10.10;;;12.50;99.90;;;;;;4405590;28;659906;-69
2021/08/30 05:01:37;;;;;;;16.77;11.03;;;12.50;99.90;;;;;;4422251;28;658596;-69
2021/08/30 05:04:26;;;;;;;17.50;10.93;;;12.50;99.90;;;;;;4425304;28;659324;-69
2021/08/30 05:07:13;;;;;;;15.33;11.37;;;12.50;99.90;;;;;;4408653;28;658805;-69
2021/08/30 05:10:01;;;;;;;15.67;10.10;;;12.60;99.90;;;;;;4427754;28;658523;-69
2021/08/30 05:12:50;;;;;;;16.90;9.70;;;12.60;99.90;;;;;;4409725;28;658721;-69
2021/08/30 05:15:38;;;;;;;11.53;8.53;;;12.60;99.90;;;;;;4411305;28;658031;-69
2021/08/30 05:18:26;;;;;;;11.93;9.47;;;12.60;99.90;;;;;;4424519;28;658610;-69
2021/08/30 05:21:13;;;;;;;14.87;9.47;;;12.70;99.90;;;;;;4411330;28;657707;-69
2021/08/30 05:24:01;;;;;;;11.93;8.77;;;12.70;99.90;;;;;;4429958;28;657779;-69
2021/08/30 05:26:48;;;;;;;11.70;9.20;;;12.70;99.90;;;;;;4411585;28;657631;-69
2021/08/30 05:29:38;;;;;;;13.67;9.10;;;12.70;99.90;;;;;;4430690;28;658108;-69
2021/08/30 05:32:25;;;;;;;13.07;8.63;;;12.70;99.90;;;;;;4400892;28;658107;-69
2021/08/30 05:35:13;;;;;;;12.13;8.90;;;12.80;99.90;;;;;;4411211;28;657819;-69
2021/08/30 05:38:00;;;;;;;11.60;8.87;;;12.70;99.90;;;;;;4429609;28;659039;-69
2021/08/30 05:40:48;;;;;;;13.50;8.90;;;12.80;99.90;;;;;;4411009;28;657989;-69
2021/08/30 05:43:35;;;;;;;14.83;9.17;;;12.70;99.90;;;;;;4429219;28;658985;-69
2021/08/30 05:46:24;;;;;;;13.53;9.50;;;12.70;99.90;;;;;;4404610;28;657691;-69
2021/08/30 05:49:12;;;;;;;15.27;9.70;;;12.70;99.90;;;;;;4422411;28;657602;-69
2021/08/30 05:52:00;;;;;;;14.37;9.43;;;12.80;99.90;;;;;;4432436;28;659048;-69
2021/08/30 05:54:47;;;;;;;12.03;9.80;;;12.80;99.90;;;;;;4406054;28;657502;-69
2021/08/30 05:57:35;;;;;;;13.40;10.00;;;12.90;99.90;;;;;;4432373;28;658412;-69
2021/08/30 06:00:23;;;;;;;13.87;10.50;;;12.90;99.90;;;;;;4409444;28;658613;-69
2021/08/30 06:03:12;;;;;;;16.03;10.50;;;12.90;99.90;;;;;;4429796;28;659774;-69
2021/08/30 06:05:59;;;;;;;18.07;11.63;;;12.90;99.90;;;;;;4405870;28;659439;-69
2021/08/30 06:08:47;;;;;;;13.70;10.73;;;13.00;99.90;;;;;;4425494;28;658604;-69
2021/08/30 06:11:34;;;;;;;16.60;10.70;;;13.00;99.90;;;;;;4407114;28;659464;-69
2021/08/30 06:14:22;;;;;;;16.23;10.60;;;13.00;99.90;;;;;;4413244;28;659804;-69
2021/08/30 06:17:10;;;;;;;17.17;11.23;;;13.00;99.90;;;;;;4417556;28;659238;-69
2021/08/30 06:19:59;;;;;;;15.20;10.60;;;13.00;99.90;;;;;;4409392;28;658919;-69
2021/08/30 06:22:47;;;;;;;13.03;9.80;;;13.10;99.90;;;;;;4427982;28;658851;-69
2021/08/30 06:25:34;;;;;;;14.43;9.93;;;13.10;99.90;;;;;;4406957;28;658066;-69
2021/08/30 06:28:22;;;;;;;12.60;9.53;;;13.20;99.90;;;;;;4429695;28;658593;-69
2021/08/30 06:31:10;;;;;;;13.33;9.80;;;13.20;99.90;;;;;;4434603;28;658418;-69
2021/08/30 06:33:57;;;;;;;13.10;9.87;;;13.20;99.90;;;;;;4414180;28;657769;-69
2021/08/30 06:36:47;;;;;;;12.30;9.50;;;13.20;99.90;;;;;;4435906;28;658341;-69
2021/08/30 06:39:34;;;;;;;12.30;9.60;;;13.40;99.90;;;;;;4410537;28;658579;-69
2021/08/30 06:42:22;;;;;;;13.13;9.33;;;13.40;99.90;;;;;;4427674;28;657708;-69
2021/08/30 06:45:10;;;;;;;12.30;8.97;;;13.40;99.90;;;;;;4407396;28;658183;-69
2021/08/30 06:47:58;;;;;;;14.57;10.00;;;13.50;99.90;;;;;;4406511;28;657775;-69
2021/08/30 06:50:46;;;;;;;11.17;9.07;;;13.50;99.90;;;;;;4430358;28;659115;-70
2021/08/30 06:53:35;;;;;;;14.40;9.60;;;13.60;99.90;;;;;;4403100;28;657730;-69
2021/08/30 06:56:22;;;;;;;13.73;10.03;;;13.60;99.90;;;;;;4411983;28;658504;-69
2021/08/30 06:59:10;;;;;;;13.33;10.00;;;13.50;99.90;;;;;;4430778;28;659509;-69
2021/08/30 07:01:58;;;;;;;13.83;10.20;;;13.50;99.90;;;;;;4410474;28;658835;-69
2021/08/30 07:04:46;;;;;;;12.47;9.23;;;13.60;99.90;;;;;;4429476;28;659790;-69
2021/08/30 07:07:33;;;;;;;13.57;9.57;;;13.60;99.90;;;;;;4410877;28;657705;-69
2021/08/30 07:10:22;;;;;;;11.90;8.97;;;13.50;99.90;;;;;;4425918;28;659155;-69
2021/08/30 07:13:10;;;;;;;12.50;8.97;;;13.50;99.90;;;;;;4406534;28;657628;-69
2021/08/30 07:15:57;;;;;;;14.73;10.13;;;13.40;99.90;;;;;;4412974;28;657564;-69
2021/08/30 07:18:45;;;;;;;13.80;9.70;;;13.50;99.90;;;;;;4423993;28;659571;-69
2021/08/30 07:21:33;;;;;;;16.00;10.63;;;13.40;99.90;;;;;;4414718;28;657515;-69
2021/08/30 07:24:20;;;;;;;15.40;10.77;;;13.50;99.90;;;;;;4430396;28;658803;-69
2021/08/30 07:27:11;;;;;;;13.30;10.17;;;13.50;99.90;;;;;;4404550;28;658977;-69
2021/08/30 07:29:58;;;;;;;14.00;10.40;;;13.50;99.90;;;;;;4409075;28;658554;-69
2021/08/30 07:32:46;;;;;;;13.17;9.97;;;13.60;99.90;;;;;;4430064;28;658666;-69
2021/08/30 07:35:33;;;;;;;14.63;10.90;;;13.60;99.90;;;;;;4399581;28;657324;-69
2021/08/30 07:38:21;;;;;;;13.70;9.97;;;13.70;99.90;;;;;;4431040;28;658540;-69
2021/08/30 07:41:09;;;;;;;13.73;9.77;;;13.70;99.90;;;;;;4403289;28;659651;-69
2021/08/30 07:43:58;;;;;;;15.13;10.13;;;13.80;99.90;;;;;;4427625;28;657478;-69
2021/08/30 07:46:46;;;;;;;13.00;9.77;;;13.80;99.90;;;;;;4406875;28;659417;-69
2021/08/30 07:49:33;;;;;;;11.60;9.60;;;13.90;99.90;;;;;;4412984;28;657656;-69
2021/08/30 07:52:21;;;;;;;15.53;10.33;;;13.90;99.90;;;;;;4431751;28;657416;-69
2021/08/30 07:55:09;;;;;;;13.47;9.07;;;13.90;99.90;;;;;;4408045;28;659052;-69
2021/08/30 07:57:57;;;;;;;12.43;9.90;;;13.80;99.90;;;;;;4423681;28;658045;-69
2021/08/30 08:00:46;;;;;;;14.17;9.83;;;13.70;99.90;;;;;;4426251;28;657917;-69
2021/08/30 08:03:34;;;;;;;13.83;9.60;;;13.60;99.90;;;;;;4408924;28;659120;-70
2021/08/30 08:06:22;;;;;;;14.37;10.00;;;13.60;99.90;;;;;;4424359;28;657671;-69
2021/08/30 08:09:09;;;;;;;15.87;9.97;;;13.50;99.90;;;;;;4404999;28;659290;-69
2021/08/30 08:11:57;;;;;;;12.77;9.40;;;13.50;99.90;;;;;;4415961;28;657831;-69
2021/08/30 08:14:45;;;;;;;15.23;10.23;;;13.60;99.90;;;;;;4425665;28;658637;-69
2021/08/30 08:17:34;;;;;;;13.50;9.73;;;13.50;99.90;;;;;;4407874;28;658296;-69
2021/08/30 08:20:22;;;;;;;12.87;9.23;;;13.50;99.90;;;;;;4424963;28;657584;-69
2021/08/30 08:23:10;;;;;;;20.00;11.37;;;13.50;99.90;;;;;;4434374;28;658054;-69
2021/08/30 08:25:58;;;;;;;15.33;10.97;;;13.50;99.90;;;;;;4404980;28;659005;-69
2021/08/30 08:28:45;;;;;;;16.70;11.00;;;13.60;99.90;;;;;;4410593;28;659531;-69
2021/08/30 08:31:34;;;;;;;14.70;10.87;;;13.60;99.90;;;;;;4392401;28;659004;-69
2021/08/30 08:34:23;;;;;;;15.20;11.03;;;13.70;99.90;;;;;;4404707;28;658618;-69
2021/08/30 08:37:11;;;;;;;19.27;11.90;;;13.60;99.90;;;;;;4389444;28;659011;-69
2021/08/30 08:39:59;;;;;;;15.93;11.17;;;13.70;99.90;;;;;;4391271;28;658880;-69
2021/08/30 08:42:46;;;;;;;17.87;11.23;;;13.70;99.90;;;;;;4411562;28;658273;-69
2021/08/30 08:45:34;;;;;;;16.10;11.50;;;13.80;99.90;;;;;;4389738;28;660370;-69
2021/08/30 08:48:22;;;;;;;16.40;11.43;;;13.90;99.90;;;;;;4404852;28;658446;-69
2021/08/30 08:51:11;;;;;;;17.43;11.70;;;13.90;99.90;;;;;;4388139;28;659630;-69
2021/08/30 08:53:59;;;;;;;16.90;11.27;;;13.80;99.90;;;;;;4390112;28;658456;-69
2021/08/30 08:56:46;;;;;;;16.97;10.63;;;13.80;99.90;;;;;;4411930;28;659023;-69
2021/08/30 08:59:35;;;;;;;15.67;10.50;;;13.80;99.90;;;;;;4390455;28;659308;-69
2021/08/30 09:02:26;;;;;;;13.87;9.73;;;13.90;99.90;;;;;;4396813;28;658807;-69
2021/08/30 09:05:22;;;;;;;14.00;9.82;;;13.80;99.90;;;;;;4391347;28;657967;-69
2021/08/30 09:08:28;;;;;;;14.00;9.53;;;13.80;99.90;;;;;;4367101;28;657922;-69
2021/08/30 09:11:16;;;;;;;15.03;10.47;;;13.80;99.90;;;;;;4383776;28;657564;-69
2021/08/30 09:14:11;;;;;;;14.77;10.63;;;13.80;99.90;;;;;;4392221;28;658598;-69
2021/08/30 09:17:03;;;;;;;14.27;10.43;;;13.90;99.90;;;;;;4361499;28;659689;-69
2021/08/30 09:19:53;;;;;;;12.73;10.20;;;13.90;99.90;;;;;;4388854;28;658660;-69
2021/08/30 09:22:41;;;;;;;12.90;9.23;;;13.90;99.90;;;;;;4385506;28;658503;-69
2021/08/30 09:25:30;;;;;;;12.83;10.10;;;14.00;99.90;;;;;;4393731;28;657721;-69
2021/08/30 09:28:19;;;;;;;12.67;9.20;;;14.00;99.90;;;;;;4392121;28;658879;-69
2021/08/30 09:31:07;;;;;;;13.43;9.00;;;14.10;99.90;;;;;;4429386;28;657267;-69
2021/08/30 09:33:54;;;;;;;14.70;8.77;;;14.10;99.90;;;;;;4398563;28;658727;-69
2021/08/30 09:36:43;;;;;;;11.10;7.93;;;14.10;99.90;;;;;;4427936;28;657543;-70
2021/08/30 09:39:32;;;;;;;9.97;7.47;;;14.20;99.90;;;;;;4429641;28;658436;-69
2021/08/30 09:42:22;;;;;;;9.37;7.97;;;14.30;99.90;;;;;;4408299;28;656624;-69
2021/08/30 09:45:10;;;;;;;10.03;7.43;;;14.40;99.90;;;;;;4403319;28;657464;-69
2021/08/30 09:47:59;;;;;;;10.83;7.47;;;14.40;99.90;;;;;;4411302;28;658103;-69
2021/08/30 09:50:46;;;;;;;11.37;6.70;;;14.30;99.90;;;;;;4429914;28;657306;-69
2021/08/30 09:53:34;;;;;;;11.40;6.60;;;14.40;99.90;;;;;;4404552;28;657959;-69
2021/08/30 09:56:22;;;;;;;8.40;6.90;;;14.20;99.90;;;;;;4429292;28;657483;-69
2021/08/30 09:59:11;;;;;;;10.37;7.03;;;14.10;99.90;;;;;;4393377;28;657451;-69
2021/08/30 10:02:01;;;;;;;9.57;6.70;;;14.10;99.90;;;;;;4410681;28;658845;-69
2021/08/30 10:04:48;;;;;;;10.23;7.53;;;14.10;99.90;;;;;;4404524;28;656541;-69
2021/08/30 10:07:37;;;;;;;7.97;6.77;;;14.10;99.90;;;;;;4427419;28;657865;-69
2021/08/30 10:10:25;;;;;;;10.10;7.77;;;14.20;99.90;;;;;;4415021;28;656735;-69
2021/08/30 10:13:12;;;;;;;10.50;6.43;;;14.20;99.90;;;;;;4416497;28;658125;-69
2021/08/30 10:16:02;;;;;;;9.10;7.17;;;14.20;99.90;;;;;;4433896;28;657958;-69
2021/08/30 10:18:49;;;;;;;9.03;7.17;;;14.20;99.90;;;;;;4411284;28;656822;-68
2021/08/30 10:21:42;;;;;;;11.37;7.73;;;14.10;99.90;;;;;;4434412;28;656321;-69
2021/08/30 10:24:39;;;;;;;11.23;7.63;;;14.00;99.90;;;;;;4404137;28;658186;-69
2021/08/30 10:27:34;;;;;;;10.63;7.50;;;13.90;99.90;;;;;;4431831;28;657684;-69
2021/08/30 10:30:23;;;;;;;9.23;6.87;;;13.90;99.90;;;;;;4409705;28;657849;-69
2021/08/30 10:33:12;;;;;;;8.27;5.83;;;13.90;99.90;;;;;;4410482;28;657036;-69
2021/08/30 10:36:00;;;;;;;8.40;5.50;;;13.80;99.90;;;;;;4411495;28;657109;-69
2021/08/30 10:39:02;;;;;;;7.97;5.73;;;13.70;99.90;;;;;;4416624;28;657119;-69
2021/08/30 10:41:50;;;;;;;6.67;5.07;;;13.60;99.90;;;;;;4410745;28;657332;-69
2021/08/30 10:44:50;;;;;;;10.37;5.43;;;13.60;99.90;;;;;;4412828;28;656420;-69
2021/08/30 10:47:38;;;;;;;11.40;6.67;;;13.60;99.90;;;;;;4390460;28;657847;-69
2021/08/30 10:50:27;;;;;;;12.33;7.10;;;13.50;99.90;;;;;;4432619;28;657810;-69
2021/08/30 10:53:18;;;;;;;15.00;8.37;;;13.50;99.90;;;;;;4410308;28;658679;-69
2021/08/30 10:56:09;;;;;;;11.90;8.63;;;13.60;99.90;;;;;;4403888;28;658111;-68
2021/08/30 10:59:03;;;;;;;18.77;10.63;;;13.60;99.90;;;;;;4429345;28;657615;-69
2021/08/30 11:01:54;;;;;;;17.03;11.57;;;13.60;99.90;;;;;;4407267;28;659789;-69
2021/08/30 11:04:43;;;;;;;15.30;9.97;;;13.60;99.90;;;;;;4407273;28;659342;-69
2021/08/30 11:07:32;;;;;;;14.97;8.90;;;13.70;99.90;;;;;;4394737;28;658585;-68
2021/08/30 11:10:20;;;;;;;19.50;9.00;;;13.70;99.90;;;;;;4401616;28;657901;-69
2021/08/30 11:13:08;;;;;;;15.23;8.07;;;13.70;99.90;;;;;;4419429;28;657545;-69
2021/08/30 11:15:55;;;;;;;13.48;8.45;;;13.80;99.90;;;;;;4433440;28;658357;-69
2021/08/30 11:18:52;;;;;;;12.90;8.57;;;13.80;99.90;;;;;;4410476;28;657695;-69
2021/08/30 11:21:47;;;;;;;13.27;9.07;;;13.90;99.90;;;;;;4381561;28;657896;-69
2021/08/30 11:24:38;;;;;;;17.70;9.73;;;13.90;99.90;;;;;;4404798;28;658388;-69
2021/08/30 11:27:29;;;;;;;18.97;10.60;;;14.10;99.90;;;;;;4404879;28;658758;-69
2021/08/30 11:30:19;;;;;;;18.33;11.43;;;14.10;99.90;;;;;;4393523;28;658588;-69
2021/08/30 11:33:06;;;;;;;23.20;12.30;;;14.10;99.90;;;;;;4399580;28;658362;-69
2021/08/30 11:35:59;;;;;;;20.40;12.20;;;14.20;99.90;;;;;;4411823;28;659054;-69
2021/08/30 11:38:54;;;;;;;22.97;12.40;;;14.20;99.90;;;;;;4407703;28;658927;-69
2021/08/30 11:41:44;;;;;;;30.83;12.70;;;14.10;99.90;;;;;;4406830;28;658649;-69
2021/08/30 11:44:33;;;;;;;16.07;9.40;;;14.10;99.90;;;;;;4402864;28;659031;-69
2021/08/30 11:47:21;;;;;;;15.33;9.63;;;14.10;99.90;;;;;;4431794;28;657378;-69
2021/08/30 11:50:10;;;;;;;18.30;9.57;;;14.00;99.90;;;;;;4409019;28;658645;-69
2021/08/30 11:52:59;;;;;;;12.53;8.80;;;13.90;99.90;;;;;;4404390;28;657545;-68
2021/08/30 11:55:47;;;;;;;12.77;8.20;;;13.80;99.90;;;;;;4422028;28;658122;-68
2021/08/30 11:58:36;;;;;;;12.93;8.03;;;13.70;99.90;;;;;;4434002;28;657541;-69
2021/08/30 12:01:24;;;;;;;13.77;8.07;;;13.70;99.90;;;;;;4408502;28;658872;-69
2021/08/30 12:04:16;;;;;;;12.43;7.57;;;13.60;99.90;;;;;;4423746;28;657627;-69
2021/08/30 12:07:05;;;;;;;9.87;7.30;;;13.60;99.90;;;;;;4385514;28;657827;-69
2021/08/30 12:09:53;;;;;;;9.53;7.27;;;13.60;99.90;;;;;;4416980;28;656454;-69
2021/08/30 12:12:54;;;;;;;10.33;6.97;;;13.60;99.90;;;;;;4432507;28;657204;-69
2021/08/30 12:15:46;;;;;;;10.77;6.97;;;13.60;99.90;;;;;;4404819;28;658139;-69
2021/08/30 12:18:33;;;;;;;9.90;6.83;;;13.60;99.90;;;;;;4399885;28;657326;-69
2021/08/30 12:21:30;;;;;;;10.30;7.93;;;13.60;99.90;;;;;;4433798;28;656636;-69
2021/08/30 12:24:20;;;;;;;10.33;7.57;;;13.70;99.90;;;;;;4411575;28;657883;-69
2021/08/30 12:27:07;;;;;;;8.63;7.00;;;13.70;99.90;;;;;;4401711;28;657775;-69
2021/08/30 12:29:55;;;;;;;9.10;7.63;;;13.80;99.90;;;;;;4432950;28;657432;-68
2021/08/30 12:33:08;;;;;;;9.40;7.27;;;13.80;99.90;;;;;;4408008;28;657150;-68
2021/08/30 12:35:57;;;;;;;9.50;7.53;;;13.80;99.90;;;;;;4403593;28;657402;-69
2021/08/30 12:38:45;;;;;;;9.23;7.10;;;13.80;99.90;;;;;;4409225;28;657800;-69
2021/08/30 12:41:34;;;;;;;10.60;8.40;;;13.70;99.90;;;;;;4407421;28;656902;-69
2021/08/30 12:44:22;;;;;;;14.67;8.20;;;13.80;99.90;;;;;;4426275;28;657563;-69
2021/08/30 12:47:11;;;;;;;9.20;7.57;;;14.00;99.90;;;;;;4376453;28;659255;-69
2021/08/30 12:50:00;;;;;;;12.27;8.60;;;14.20;99.90;;;;;;4407648;28;656625;-69
2021/08/30 12:52:48;;;;;;;11.23;8.30;;;14.40;99.90;;;;;;4411892;28;657613;-69
2021/08/30 12:55:35;;;;;;;13.00;8.47;;;14.50;99.90;;;;;;4434191;28;659174;-69
2021/08/30 12:58:23;;;;;;;9.90;7.47;;;14.60;99.90;;;;;;4411436;28;657511;-69
2021/08/30 13:01:11;;;;;;;8.35;6.47;;;14.80;99.90;;;;;;4428677;28;657430;-69
2021/08/30 13:03:59;;;;;;;7.97;6.10;;;15.00;99.90;;;;;;4406630;28;656818;-69
2021/08/30 13:06:48;;;;;;;9.30;6.40;;;14.90;99.90;;;;;;4430898;28;656757;-68
2021/08/30 13:09:35;;;;;;;6.70;5.63;;;15.00;99.90;;;;;;4408090;28;657840;-69
2021/08/30 13:12:23;;;;;;;8.50;5.83;;;15.00;99.90;;;;;;4412162;28;657044;-69
2021/08/30 13:15:11;;;;;;;7.73;5.37;;;15.00;99.90;;;;;;4424430;28;656952;-69
2021/08/30 13:17:59;;;;;;;10.03;5.40;;;14.90;99.90;;;;;;4406074;28;656391;-69
2021/08/30 13:20:50;;;;;;;9.07;5.57;;;15.00;99.90;;;;;;4428217;28;657548;-69
2021/08/30 13:23:39;;;;;;;5.70;4.73;;;14.90;99.90;;;;;;4390450;28;656895;-68
2021/08/30 13:26:26;;;;;;;6.10;5.20;;;14.80;99.90;;;;;;4430947;28;657178;-69
2021/08/30 13:29:14;;;;;;;6.03;4.97;;;14.70;99.90;;;;;;4408476;28;658152;-68
2021/08/30 13:32:01;;;;;;;6.77;5.03;;;14.60;99.90;;;;;;4430585;28;657649;-69
2021/08/30 13:34:49;;;;;;;6.83;4.90;;;14.60;99.90;;;;;;4412558;28;658297;-68
2021/08/30 13:37:37;;;;;;;7.30;5.20;;;14.50;99.90;;;;;;4427289;28;657033;-69
2021/08/30 13:40:26;;;;;;;8.57;4.90;;;14.50;99.90;;;;;;4411940;28;657639;-68
2021/08/30 13:43:14;;;;;;;9.53;5.07;;;14.50;99.90;;;;;;4406379;28;656482;-68
2021/08/30 13:46:01;;;;;;;10.37;5.67;;;14.50;99.90;;;;;;4419590;28;656488;-69
2021/08/30 13:48:49;;;;;;;7.57;5.80;;;14.50;99.90;;;;;;4397128;28;658897;-68
2021/08/30 13:51:36;;;;;;;6.65;5.75;;;14.50;99.90;;;;;;4430339;28;657134;-68
2021/08/30 13:54:24;;;;;;;9.17;7.27;;;14.40;99.90;;;;;;4403624;28;658244;-68
2021/08/30 13:57:13;;;;;;;8.87;6.37;;;14.40;99.90;;;;;;4425237;28;657138;-69
2021/08/30 14:00:01;;;;;;;7.17;5.67;;;14.60;99.90;;;;;;4408654;28;656605;-68
2021/08/30 14:02:48;;;;;;;7.67;5.47;;;14.60;99.90;;;;;;4412065;28;656403;-69
2021/08/30 14:05:37;;;;;;;7.77;5.70;;;14.70;99.90;;;;;;4430973;28;656612;-69
2021/08/30 14:08:24;;;;;;;8.40;5.70;;;14.90;99.90;;;;;;4407505;28;657637;-69
2021/08/30 14:11:12;;;;;;;8.07;6.13;;;14.80;99.90;;;;;;4426572;28;656760;-69
2021/08/30 14:14:01;;;;;;;8.53;6.00;;;15.00;99.90;;;;;;4431091;28;657435;-69
2021/08/30 14:16:49;;;;;;;9.07;6.13;;;15.10;99.90;;;;;;4403924;28;657693;-68